Flight Track Log - Related Links

Times and Time Zones

All times are in EDT time to prevent confusion due to time zone crossing. See the UAL87 flight status page for this flight to view local times or setup timezone preferences in your user account.


Time Position Orientation Groundspeed Altitude Reporting Facility
EDT Latitude Longitude Course Direction KTS MPH feet Rate Location/Type
Sat 04:32:00 AM 31.4970 121.9396 14° North  Level FlightAware Approximate
Sat 04:33:00 AM 31.6166 121.9962 25° Northeast  Level FlightAware Approximate
Sat 04:34:00 AM 31.7354 122.0564 21° North  Level FlightAware Approximate
Sat 04:35:00 AM 31.8566 122.1102 21° North  Level FlightAware Approximate
Sat 04:36:00 AM 31.9778 122.1642 21° North  Level FlightAware Approximate
Sat 04:37:00 AM 32.0999 122.2152 19° North  Level FlightAware Approximate
Sat 04:38:00 AM 32.2211 122.2689 23° Northeast  Level FlightAware Approximate
Sat 04:39:00 AM 32.3405 122.3285 23° Northeast  Level FlightAware Approximate
Sat 04:40:00 AM 32.4605 122.3861 21° North  Level FlightAware Approximate
Sat 04:41:00 AM 32.5815 122.4408 23° Northeast  Level FlightAware Approximate
Sat 04:42:00 AM 32.7023 122.4962 20° North  Level FlightAware Approximate
Sat 04:43:00 AM 32.8233 122.5511 22° Northeast  Level FlightAware Approximate
Sat 04:44:00 AM 32.9438 122.6078 22° Northeast  Level FlightAware Approximate
Sat 04:45:00 AM 33.0650 122.6619 17° North  Level FlightAware Approximate
Sat 04:46:00 AM 33.1881 122.7100 21° North  Level FlightAware Approximate
Sat 04:47:00 AM 33.3087 122.7665 21° North  Level FlightAware Approximate
Sat 04:48:00 AM 33.4293 122.8231 21° North  Level FlightAware Approximate
Sat 04:49:00 AM 33.5499 122.8799 21° North  Level FlightAware Approximate
Sat 04:50:00 AM 33.6704 122.9368 21° North  Level FlightAware Approximate
Sat 04:51:00 AM 33.7909 122.9939 21° North  Level FlightAware Approximate
Sat 04:52:00 AM 33.9114 123.0511 22° Northeast  Level FlightAware Approximate
Sat 04:53:00 AM 34.0319 123.1085 22° Northeast  Level FlightAware Approximate
Sat 04:54:00 AM 34.1523 123.1661 22° Northeast  Level FlightAware Approximate
Sat 04:55:00 AM 34.2727 123.2238 22° Northeast  Level FlightAware Approximate
Sat 04:56:00 AM 34.3931 123.2818 22° Northeast  Level FlightAware Approximate
Sat 04:57:00 AM 34.5135 123.3398 22° Northeast  Level FlightAware Approximate
Sat 04:58:00 AM 34.6338 123.3981 22° Northeast  Level FlightAware Approximate
Sat 04:59:00 AM 34.7541 123.4565 22° Northeast  Level FlightAware Approximate
Sat 05:00:00 AM 34.8744 123.5151 22° Northeast  Level FlightAware Approximate
Sat 05:01:00 AM 34.9995 123.5762 22° Northeast  Level FlightAware Approximate
Sat 05:02:00 AM 35.1247 123.6376 22° Northeast  Level FlightAware Approximate
Sat 05:03:00 AM 35.2498 123.6991 22° Northeast  Level FlightAware Approximate
Sat 05:04:00 AM 35.3749 123.7609 22° Northeast  Level FlightAware Approximate
Sat 05:05:00 AM 35.4984 123.8220 22° Northeast  Level FlightAware Approximate
Sat 05:06:00 AM 35.6219 123.8834 22° Northeast  Level FlightAware Approximate
Sat 05:07:00 AM 35.7454 123.9449 22° Northeast  Level FlightAware Approximate
Sat 05:08:00 AM 35.8688 124.0067 22° Northeast  Level FlightAware Approximate
Sat 05:09:00 AM 35.9922 124.0686 22° Northeast  Level FlightAware Approximate
Sat 05:10:00 AM 36.1156 124.1307 22° Northeast  Level FlightAware Approximate
Sat 05:11:00 AM 36.2389 124.1930 22° Northeast  Level FlightAware Approximate
Sat 05:12:00 AM 36.3622 124.2555 22° Northeast  Level FlightAware Approximate
Sat 05:13:00 AM 36.4853 124.3182 22° Northeast  Level FlightAware Approximate
Sat 05:14:00 AM 36.6084 124.3810 22° Northeast  Level FlightAware Approximate
Sat 05:15:00 AM 36.7314 124.4440 22° Northeast  Level FlightAware Approximate
Sat 05:16:00 AM 36.8545 124.5073 22° Northeast  Level FlightAware Approximate
Sat 05:17:00 AM 36.9774 124.5707 22° Northeast  Level FlightAware Approximate
Sat 05:18:00 AM 37.1004 124.6344 22° Northeast  Level FlightAware Approximate
Sat 05:19:00 AM 37.2233 124.6982 22° Northeast  Level FlightAware Approximate
Sat 05:19:45 AM 36.3134 123.4313 359° North 493 567 32,100  Level FlightAware ADS-B (ZSQD / TAO)
Sat 05:20:00 AM 37.3462 124.7623 23° Northeast  Level FlightAware Approximate
Sat 05:20:11 AM 36.3623 123.4301 359° North 491 565 32,100  Level FlightAware ADS-B (ZSQD / TAO)
Sat 05:20:30 AM 36.4101 123.4286 359° North 486 559 32,100  Level FlightAware ADS-B (ZSQD / TAO)
Sat 05:22:42 AM 36.7095 123.4206 359° North 486 559 32,100  Level FlightAware ADS-B (ZSQD / TAO)
Sat 05:24:51 AM 36.9766 123.4717 359° North 487 560 32,100  Level FlightAware ADS-B (ZSQD / TAO)
Sat 05:25:00 AM 37.0070 123.5100 13° North  Level Estimated
Sat 05:25:32 AM 37.0933 123.4721 359° North 487 560 32,100  Level FlightAware ADS-B (ZSQD / TAO)
Sat 05:28:00 AM 37.4124 123.5687 14° North  Level Estimated
Sat 05:29:00 AM 37.5417 123.6081 14° North  Level Estimated
Sat 05:30:00 AM 37.6710 123.6476 14° North  Level Estimated
Sat 05:31:00 AM 37.8001 123.6872 14° North  Level Estimated
Sat 05:31:25 AM 37.8114 123.2007 315° West 481 554 32,100  Level FlightAware ADS-B (ZSQD / TAO)
Sat 05:31:30 AM 37.8192 123.1907 315° West 481 554 32,100  Level FlightAware ADS-B (ZSQD / TAO)
Sat 05:32:45 AM 37.9365 123.0404 315° West 487 560 32,100  Level FlightAware ADS-B (ZSQD / TAO)
Sat 05:33:13 AM 37.9790 122.9858 315° West 487 560 32,100  Level FlightAware ADS-B (ZSQD / TAO)
Sat 05:33:43 AM 38.0063 122.9505 315° West 487 560 32,100  Level FlightAware ADS-B (ZSQD / TAO)
Sat 05:34:15 AM 38.0786 122.8562 315° West 488 562 32,100  Level FlightAware ADS-B (ZSQD / TAO)
Sat 05:34:43 AM 38.1204 122.8016 315° West 488 562 32,100  Level FlightAware ADS-B (ZSQD / TAO)
Sat 05:35:14 AM 38.1688 122.7383 314° West 488 562 32,100  Level FlightAware ADS-B (ZSQD / TAO)
Sat 05:35:29 AM 38.1927 122.7067 314° West 488 562 32,100 58 Level FlightAware ADS-B (ZSQD / TAO)
Sat 05:38:40 AM 38.5516 122.5008 North 486 559 32,300 206 Climbing FlightAware ADS-B (ZSQD / TAO)
Sat 05:40:20 AM 38.7818 122.5383 North 488 562 33,100 331 Climbing FlightAware ADS-B (ZSQD / TAO)
Sat 05:41:05 AM 38.8770 122.5536 North 488 562 33,100 Level FlightAware ADS-B (ZSQD / TAO)
Sat 05:43:00 AM 39.1253 122.6262 13° North  Level Estimated
Sat 05:44:00 AM 39.2549 122.6642 13° North  Level Estimated
Sat 05:45:00 AM 39.3844 122.7024 13° North  Level Estimated
Sat 05:46:00 AM 39.5141 122.7407 13° North  Level Estimated
Sat 05:47:00 AM 39.6438 122.7792 13° North  Level Estimated
Sat 05:48:00 AM 39.7735 122.8179 13° North  Level Estimated
Sat 05:49:00 AM 39.9031 122.8567 13° North  Level Estimated
Sat 05:50:00 AM 40.0328 122.8956 13° North  Level Estimated
Sat 05:51:00 AM 40.1624 122.9347 13° North  Level Estimated
Sat 05:52:00 AM 40.2919 122.9739 13° North  Level Estimated
Sat 05:53:00 AM 40.4213 123.0133 13° North  Level Estimated
Sat 05:54:00 AM 40.5507 123.0527 13° North  Level Estimated
Sat 05:55:00 AM 40.6801 123.0924 13° North  Level Estimated
Sat 05:56:00 AM 40.8095 123.1322 13° North  Level Estimated
Sat 05:57:00 AM 40.9389 123.1722 13° North  Level Estimated
Sat 05:58:00 AM 41.0683 123.2123 13° North  Level Estimated
Sat 05:59:00 AM 41.1977 123.2525 13° North  Level Estimated
Sat 06:00:00 AM 41.3270 123.2930 13° North  Level Estimated
Sat 06:01:00 AM 41.4563 123.3336 13° North  Level Estimated
Sat 06:02:00 AM 41.5857 123.3743 13° North  Level Estimated
Sat 06:03:00 AM 41.7150 123.4153 13° North  Level Estimated
Sat 06:04:00 AM 41.8442 123.4563 13° North  Level Estimated
Sat 06:05:00 AM 41.9735 123.4976 13° North  Level Estimated
Sat 06:06:00 AM 42.1026 123.5389 13° North  Level Estimated
Sat 06:07:00 AM 42.2317 123.5805 13° North  Level Estimated
Sat 06:08:00 AM 42.3609 123.6223 13° North  Level Estimated
Sat 06:09:00 AM 42.4902 123.6642 13° North  Level Estimated
Sat 06:10:00 AM 42.6193 123.7063 13° North  Level Estimated
Sat 06:11:00 AM 42.7485 123.7486 14° North  Level Estimated
Sat 06:12:00 AM 42.8777 123.7910 14° North  Level Estimated
Sat 06:13:00 AM 43.0069 123.8336 14° North  Level Estimated
Sat 06:14:00 AM 43.1360 123.8765 14° North  Level Estimated
Sat 06:15:00 AM 43.2651 123.9195 14° North  Level Estimated
Sat 06:16:00 AM 43.3942 123.9626 14° North  Level Estimated
Sat 06:17:00 AM 43.5233 124.0060 14° North  Level Estimated
Sat 06:18:00 AM 43.6524 124.0495 14° North  Level Estimated
Sat 06:19:00 AM 43.7814 124.0933 14° North  Level Estimated
Sat 06:20:00 AM 43.9104 124.1372 14° North  Level Estimated
Sat 06:21:00 AM 44.0395 124.1813 14° North  Level Estimated
Sat 06:22:00 AM 44.1685 124.2256 14° North  Level Estimated
Sat 06:23:00 AM 44.2973 124.2701 14° North  Level Estimated
Sat 06:24:00 AM 44.4261 124.3147 14° North  Level Estimated
Sat 06:25:00 AM 44.5549 124.3596 14° North  Level Estimated
Sat 06:26:00 AM 44.6837 124.4046 14° North  Level Estimated
Sat 06:27:00 AM 44.8124 124.4498 14° North  Level Estimated
Sat 06:28:00 AM 44.9413 124.4953 14° North  Level Estimated
Sat 06:29:00 AM 45.0702 124.5410 14° North  Level Estimated
Sat 06:30:00 AM 45.1991 124.5869 14° North  Level Estimated
Sat 06:31:00 AM 45.3294 124.6336 14° North  Level Estimated
Sat 06:32:00 AM 45.4596 124.6804 14° North  Level Estimated
Sat 06:33:00 AM 45.5899 124.7275 14° North  Level Estimated
Sat 06:34:00 AM 45.7201 124.7748 14° North  Level Estimated
Sat 06:35:00 AM 45.8503 124.8223 14° North  Level Estimated
Sat 06:36:00 AM 45.9790 124.8695 14° North  Level Estimated
Sat 06:37:00 AM 46.1078 124.9169 14° North  Level Estimated
Sat 06:38:00 AM 46.2365 124.9645 14° North  Level Estimated
Sat 06:39:00 AM 46.3652 125.0124 14° North  Level Estimated
Sat 06:40:00 AM 46.4938 125.0605 14° North  Level Estimated
Sat 06:41:00 AM 46.6225 125.1088 14° North  Level Estimated
Sat 06:42:00 AM 46.7511 125.1574 14° North  Level Estimated
Sat 06:43:00 AM 46.8797 125.2061 15° North  Level Estimated
Sat 06:44:00 AM 47.0083 125.2552 15° North  Level Estimated
Sat 06:45:00 AM 47.1369 125.3044 15° North  Level Estimated
Sat 06:46:00 AM 47.2654 125.3539 15° North  Level Estimated
Sat 06:47:00 AM 47.3939 125.4036 15° North  Level Estimated
Sat 06:48:00 AM 47.5224 125.4536 15° North  Level Estimated
Sat 06:49:00 AM 47.6509 125.5038 15° North  Level Estimated
Sat 06:50:00 AM 47.7794 125.5543 15° North  Level Estimated
Sat 06:51:00 AM 47.9078 125.6050 15° North  Level Estimated
Sat 06:52:00 AM 48.0362 125.6560 15° North  Level Estimated
Sat 06:53:00 AM 48.1646 125.7072 15° North  Level Estimated
Sat 06:54:00 AM 48.2930 125.7587 15° North  Level Estimated
Sat 06:55:00 AM 48.4213 125.8104 15° North  Level Estimated
Sat 06:56:00 AM 48.5496 125.8625 15° North  Level Estimated
Sat 06:57:00 AM 48.6779 125.9147 15° North  Level Estimated
Sat 06:58:00 AM 48.8062 125.9673 15° North  Level Estimated
Sat 06:59:00 AM 48.9344 126.0201 15° North  Level Estimated
Sat 07:00:00 AM 49.0627 126.0732 15° North  Level Estimated
Sat 07:01:00 AM 49.1909 126.1265 15° North  Level Estimated
Sat 07:02:00 AM 49.3190 126.1801 15° North  Level Estimated
Sat 07:03:00 AM 49.4472 126.2340 15° North  Level Estimated
Sat 07:04:00 AM 49.5753 126.2882 15° North  Level Estimated
Sat 07:05:00 AM 49.7034 126.3427 15° North  Level Estimated
Sat 07:06:00 AM 49.8315 126.3975 15° North  Level Estimated
Sat 07:07:00 AM 49.9595 126.4525 15° North  Level Estimated
Sat 07:08:00 AM 50.0876 126.5079 16° North  Level Estimated
Sat 07:09:00 AM 50.2156 126.5635 16° North  Level Estimated
Sat 07:10:00 AM 50.3435 126.6195 16° North  Level Estimated
Sat 07:11:00 AM 50.4713 126.6757 16° North  Level Estimated
Sat 07:12:00 AM 50.5992 126.7322 16° North  Level Estimated
Sat 07:13:00 AM 50.7271 126.7891 16° North  Level Estimated
Sat 07:14:00 AM 50.8550 126.8462 16° North  Level Estimated
Sat 07:15:00 AM 50.9828 126.9037 16° North  Level Estimated
Sat 07:16:00 AM 51.1106 126.9615 16° North  Level Estimated
Sat 07:17:00 AM 51.2384 127.0196 16° North  Level Estimated
Sat 07:18:00 AM 51.3661 127.0781 16° North  Level Estimated
Sat 07:19:00 AM 51.4938 127.1369 16° North  Level Estimated
Sat 07:20:00 AM 51.6215 127.1960 16° North  Level Estimated
Sat 07:21:00 AM 51.7492 127.2554 16° North  Level Estimated
Sat 07:22:00 AM 51.8768 127.3152 16° North  Level Estimated
Sat 07:23:00 AM 52.0042 127.3752 16° North  Level Estimated
Sat 07:24:00 AM 52.1316 127.4356 16° North  Level Estimated
Sat 07:25:00 AM 52.2590 127.4963 16° North  Level Estimated
Sat 07:26:00 AM 52.3864 127.5574 16° North  Level Estimated
Sat 07:27:00 AM 52.5137 127.6189 16° North  Level Estimated
Sat 07:28:00 AM 52.6410 127.6806 16° North  Level Estimated
Sat 07:29:00 AM 52.7682 127.7428 16° North  Level Estimated
Sat 07:30:00 AM 52.8954 127.8053 17° North  Level Estimated
Sat 07:31:00 AM 53.0226 127.8682 17° North  Level Estimated
Sat 07:32:00 AM 53.1498 127.9314 17° North  Level Estimated
Sat 07:33:00 AM 53.2769 127.9951 17° North  Level Estimated
Sat 07:34:00 AM 53.4040 128.0591 17° North  Level Estimated
Sat 07:35:00 AM 53.5310 128.1235 17° North  Level Estimated
Sat 07:36:00 AM 53.6582 128.1884 17° North  Level Estimated
Sat 07:37:00 AM 53.7853 128.2536 17° North  Level Estimated
Sat 07:38:00 AM 53.9124 128.3193 17° North  Level Estimated
Sat 07:39:00 AM 54.0395 128.3853 17° North  Level Estimated
Sat 07:40:00 AM 54.1665 128.4518 17° North  Level Estimated
Sat 07:41:00 AM 54.2935 128.5186 17° North  Level Estimated
Sat 07:42:00 AM 54.4203 128.5858 17° North  Level Estimated
Sat 07:43:00 AM 54.5471 128.6534 17° North  Level Estimated
Sat 07:44:00 AM 54.6738 128.7215 17° North  Level Estimated
Sat 07:45:00 AM 54.8005 128.7899 17° North  Level Estimated
Sat 07:46:00 AM 54.9271 128.8588 17° North  Level Estimated
Sat 07:47:00 AM 55.0537 128.9282 17° North  Level Estimated
Sat 07:48:00 AM 55.1803 128.9979 17° North  Level Estimated
Sat 07:49:00 AM 55.3068 129.0681 18° North  Level Estimated
Sat 07:50:00 AM 55.4333 129.1388 18° North  Level Estimated
Sat 07:51:00 AM 55.5597 129.2099 18° North  Level Estimated
Sat 07:52:00 AM 55.6861 129.2815 18° North  Level Estimated
Sat 07:53:00 AM 55.8125 129.3535 18° North  Level Estimated
Sat 07:54:00 AM 55.9388 129.4260 18° North  Level Estimated
Sat 07:55:00 AM 56.0651 129.4990 18° North  Level Estimated
Sat 07:56:00 AM 56.1913 129.5725 18° North  Level Estimated
Sat 07:57:00 AM 56.3175 129.6464 18° North  Level Estimated
Sat 07:58:00 AM 56.4437 129.7209 18° North  Level Estimated
Sat 07:59:00 AM 56.5698 129.7958 18° North  Level Estimated
Sat 08:00:00 AM 56.6969 129.8719 18° North  Level Estimated
Sat 08:01:00 AM 56.8240 129.9485 18° North  Level Estimated
Sat 08:02:00 AM 56.9511 130.0256 18° North  Level Estimated
Sat 08:03:00 AM 57.0781 130.1033 18° North  Level Estimated
Sat 08:04:00 AM 57.2050 130.1814 18° North  Level Estimated
Sat 08:05:00 AM 57.3308 130.2595 19° North  Level Estimated
Sat 08:06:00 AM 57.4566 130.3381 19° North  Level Estimated
Sat 08:07:00 AM 57.5823 130.4172 19° North  Level Estimated
Sat 08:08:00 AM 57.7080 130.4969 19° North  Level Estimated
Sat 08:09:00 AM 57.8336 130.5771 19° North  Level Estimated
Sat 08:10:00 AM 57.9592 130.6579 19° North  Level Estimated
Sat 08:11:00 AM 58.0847 130.7392 19° North  Level Estimated
Sat 08:12:00 AM 58.2102 130.8212 19° North  Level Estimated
Sat 08:13:00 AM 58.3356 130.9037 19° North  Level Estimated
Sat 08:14:00 AM 58.4609 130.9868 19° North  Level Estimated
Sat 08:15:00 AM 58.5862 131.0705 19° North  Level Estimated
Sat 08:16:00 AM 58.7115 131.1548 19° North  Level Estimated
Sat 08:17:00 AM 58.8367 131.2397 19° North  Level Estimated
Sat 08:18:00 AM 58.9618 131.3252 19° North  Level Estimated
Sat 08:19:00 AM 59.0869 131.4113 19° North  Level Estimated
Sat 08:20:00 AM 59.2119 131.4981 20° North  Level Estimated
Sat 08:21:00 AM 59.3369 131.5855 20° North  Level Estimated
Sat 08:22:00 AM 59.4618 131.6736 20° North  Level Estimated
Sat 08:23:00 AM 59.5866 131.7623 20° North  Level Estimated
Sat 08:24:00 AM 59.7114 131.8517 20° North  Level Estimated
Sat 08:25:00 AM 59.8361 131.9417 20° North  Level Estimated
Sat 08:26:00 AM 59.9608 132.0324 20° North  Level Estimated
Sat 08:27:00 AM 60.0854 132.1238 20° North  Level Estimated
Sat 08:28:00 AM 60.2099 132.2159 20° North  Level Estimated
Sat 08:29:00 AM 60.3344 132.3087 20° North  Level Estimated
Sat 08:30:00 AM 60.4588 132.4022 20° North  Level Estimated
Sat 08:31:00 AM 60.5832 132.4965 20° North  Level Estimated
Sat 08:32:00 AM 60.7076 132.5915 20° North  Level Estimated
Sat 08:33:00 AM 60.8320 132.6873 21° North  Level Estimated
Sat 08:34:00 AM 60.9562 132.7839 21° North  Level Estimated
Sat 08:35:00 AM 61.0805 132.8812 21° North  Level Estimated
Sat 08:36:00 AM 61.2046 132.9793 21° North  Level Estimated
Sat 08:37:00 AM 61.3287 133.0782 21° North  Level Estimated
Sat 08:38:00 AM 61.4527 133.1778 21° North  Level Estimated
Sat 08:39:00 AM 61.5766 133.2782 21° North  Level Estimated
Sat 08:40:00 AM 61.7005 133.3795 21° North  Level Estimated
Sat 08:41:00 AM 61.8243 133.4816 21° North  Level Estimated
Sat 08:42:00 AM 61.9480 133.5844 21° North  Level Estimated
Sat 08:43:00 AM 62.0716 133.6882 21° North  Level Estimated
Sat 08:44:00 AM 62.1952 133.7927 22° Northeast  Level Estimated
Sat 08:45:00 AM 62.3186 133.8982 22° Northeast  Level Estimated
Sat 08:46:00 AM 62.4420 134.0045 22° Northeast  Level Estimated
Sat 08:47:00 AM 62.5653 134.1116 22° Northeast  Level Estimated
Sat 08:48:00 AM 62.6886 134.2197 22° Northeast  Level Estimated
Sat 08:49:00 AM 62.8117 134.3287 22° Northeast  Level Estimated
Sat 08:50:00 AM 62.9348 134.4386 22° Northeast  Level Estimated
Sat 08:51:00 AM 63.0577 134.5494 22° Northeast  Level Estimated
Sat 08:52:00 AM 63.1806 134.6612 22° Northeast  Level Estimated
Sat 08:53:00 AM 63.3034 134.7739 22° Northeast  Level Estimated
Sat 08:54:00 AM 63.4261 134.8876 23° Northeast  Level Estimated
Sat 08:55:00 AM 63.5487 135.0022 23° Northeast  Level Estimated
Sat 08:56:00 AM 63.6713 135.1179 23° Northeast  Level Estimated
Sat 08:57:00 AM 63.7937 135.2345 23° Northeast  Level Estimated
Sat 08:58:00 AM 63.9160 135.3522 23° Northeast  Level Estimated
Sat 08:59:00 AM 64.0383 135.4709 23° Northeast  Level Estimated
Sat 09:00:00 AM 64.1604 135.5906 23° Northeast  Level Estimated
Sat 09:01:00 AM 64.2824 135.7114 23° Northeast  Level Estimated
Sat 09:02:00 AM 64.4044 135.8333 23° Northeast  Level Estimated
Sat 09:03:00 AM 64.5262 135.9562 23° Northeast  Level Estimated
Sat 09:04:00 AM 64.6480 136.0803 24° Northeast  Level Estimated
Sat 09:05:00 AM 64.7696 136.2055 24° Northeast  Level Estimated
Sat 09:06:00 AM 64.8911 136.3318 24° Northeast  Level Estimated
Sat 09:07:00 AM 65.0125 136.4592 24° Northeast  Level Estimated
Sat 09:08:00 AM 65.1339 136.5878 24° Northeast  Level Estimated
Sat 09:09:00 AM 65.2551 136.7177 24° Northeast  Level Estimated
Sat 09:10:00 AM 65.3761 136.8486 24° Northeast  Level Estimated
Sat 09:11:00 AM 65.4971 136.9809 24° Northeast  Level Estimated
Sat 09:12:00 AM 65.6180 137.1143 24° Northeast  Level Estimated
Sat 09:13:00 AM 65.7387 137.2490 25° Northeast  Level Estimated
Sat 09:14:00 AM 65.8593 137.3849 25° Northeast  Level Estimated
Sat 09:15:00 AM 65.9798 137.5222 25° Northeast  Level Estimated
Sat 09:16:00 AM 66.1002 137.6607 25° Northeast  Level Estimated
Sat 09:17:00 AM 66.2204 137.8006 25° Northeast  Level Estimated
Sat 09:18:00 AM 66.3405 137.9418 25° Northeast  Level Estimated
Sat 09:19:00 AM 66.4605 138.0843 25° Northeast  Level Estimated
Sat 09:20:00 AM 66.5804 138.2282 26° Northeast  Level Estimated
Sat 09:21:00 AM 66.7001 138.3736 26° Northeast  Level Estimated
Sat 09:22:00 AM 66.8197 138.5203 26° Northeast  Level Estimated
Sat 09:23:00 AM 66.9391 138.6685 26° Northeast  Level Estimated
Sat 09:24:00 AM 67.0585 138.8181 26° Northeast  Level Estimated
Sat 09:25:00 AM 67.1776 138.9692 26° Northeast  Level Estimated
Sat 09:26:00 AM 67.2967 139.1218 26° Northeast  Level Estimated
Sat 09:27:00 AM 67.4155 139.2760 26° Northeast  Level Estimated
Sat 09:28:00 AM 67.5343 139.4316 27° Northeast  Level Estimated
Sat 09:29:00 AM 67.6528 139.5889 27° Northeast  Level Estimated
Sat 09:30:00 AM 67.7713 139.7477 27° Northeast  Level Estimated
Sat 09:31:00 AM 67.8906 139.9095 27° Northeast  Level Estimated
Sat 09:32:00 AM 68.0097 140.0731 27° Northeast  Level Estimated
Sat 09:33:00 AM 68.1287 140.2383 27° Northeast  Level Estimated
Sat 09:34:00 AM 68.2475 140.4052 27° Northeast  Level Estimated
Sat 09:35:00 AM 68.3661 140.5739 28° Northeast  Level Estimated
Sat 09:36:00 AM 68.4846 140.7443 28° Northeast  Level Estimated
Sat 09:37:00 AM 68.6029 140.9165 28° Northeast  Level Estimated
Sat 09:38:00 AM 68.7210 141.0906 28° Northeast  Level Estimated
Sat 09:39:00 AM 68.8389 141.2665 28° Northeast  Level Estimated
Sat 09:40:00 AM 68.9567 141.4442 28° Northeast  Level Estimated
Sat 09:41:00 AM 69.0742 141.6239 29° Northeast  Level Estimated
Sat 09:42:00 AM 69.1916 141.8056 29° Northeast  Level Estimated
Sat 09:43:00 AM 69.3088 141.9892 29° Northeast  Level Estimated
Sat 09:44:00 AM 69.4258 142.1747 29° Northeast  Level Estimated
Sat 09:45:00 AM 69.5425 142.3624 29° Northeast  Level Estimated
Sat 09:46:00 AM 69.6591 142.5520 29° Northeast  Level Estimated
Sat 09:47:00 AM 69.7755 142.7438 30° Northeast  Level Estimated
Sat 09:48:00 AM 69.8916 142.9377 30° Northeast  Level Estimated
Sat 09:49:00 AM 70.0076 143.1338 30° Northeast  Level Estimated
Sat 09:50:00 AM 70.1233 143.3320 30° Northeast  Level Estimated
Sat 09:51:00 AM 70.2388 143.5325 30° Northeast  Level Estimated
Sat 09:52:00 AM 70.3541 143.7352 31° Northeast  Level Estimated
Sat 09:53:00 AM 70.4692 143.9402 31° Northeast  Level Estimated
Sat 09:54:00 AM 70.5840 144.1476 31° Northeast  Level Estimated
Sat 09:55:00 AM 70.6985 144.3573 31° Northeast  Level Estimated
Sat 09:56:00 AM 70.8119 144.5676 31° Northeast  Level Estimated
Sat 09:57:00 AM 70.9250 144.7803 32° Northeast  Level Estimated
Sat 09:58:00 AM 71.0379 144.9955 32° Northeast  Level Estimated
Sat 09:59:00 AM 71.1505 145.2131 32° Northeast  Level Estimated
Sat 10:00:00 AM 71.2629 145.4332 32° Northeast  Level Estimated
Sat 10:01:00 AM 71.3750 145.6559 32° Northeast  Level Estimated
Sat 10:02:00 AM 71.4868 145.8812 33° Northeast  Level Estimated
Sat 10:03:00 AM 71.5984 146.1091 33° Northeast  Level Estimated
Sat 10:04:00 AM 71.7096 146.3398 33° Northeast  Level Estimated
Sat 10:05:00 AM 71.8207 146.5731 33° Northeast  Level Estimated
Sat 10:06:00 AM 71.9314 146.8092 33° Northeast  Level Estimated
Sat 10:07:00 AM 72.0417 147.0478 34° Northeast  Level Estimated
Sat 10:08:00 AM 72.1517 147.2893 34° Northeast  Level Estimated
Sat 10:09:00 AM 72.2614 147.5336 34° Northeast  Level Estimated
Sat 10:10:00 AM 72.3708 147.7809 34° Northeast  Level Estimated
Sat 10:11:00 AM 72.4799 148.0312 35° Northeast  Level Estimated
Sat 10:12:00 AM 72.5886 148.2845 35° Northeast  Level Estimated
Sat 10:14:00 AM 72.8052 148.8004 35° Northeast  Level Estimated
Sat 10:15:00 AM 72.9130 149.0631 36° Northeast  Level Estimated
Sat 10:16:00 AM 73.0204 149.3291 36° Northeast  Level Estimated
Sat 10:17:00 AM 73.1275 149.5983 36° Northeast  Level Estimated
Sat 10:18:00 AM 73.2342 149.8708 36° Northeast  Level Estimated
Sat 10:19:00 AM 73.3406 150.1468 37° Northeast  Level Estimated
Sat 10:20:00 AM 73.4466 150.4261 37° Northeast  Level Estimated
Sat 10:21:00 AM 73.5522 150.7090 37° Northeast  Level Estimated
Sat 10:22:00 AM 73.6575 150.9954 37° Northeast  Level Estimated
Sat 10:23:00 AM 73.7623 151.2854 38° Northeast  Level Estimated
Sat 10:24:00 AM 73.8668 151.5791 38° Northeast  Level Estimated
Sat 10:25:00 AM 73.9708 151.8765 38° Northeast  Level Estimated
Sat 10:26:00 AM 74.0744 152.1777 39° Northeast  Level Estimated
Sat 10:27:00 AM 74.1776 152.4827 39° Northeast  Level Estimated
Sat 10:28:00 AM 74.2804 152.7916 39° Northeast  Level Estimated
Sat 10:29:00 AM 74.3828 153.1044 39° Northeast  Level Estimated
Sat 10:30:00 AM 74.4846 153.4213 40° Northeast  Level Estimated
Sat 10:31:00 AM 74.5861 153.7423 40° Northeast  Level Estimated
Sat 10:32:00 AM 74.6870 154.0673 40° Northeast  Level Estimated
Sat 10:33:00 AM 74.7875 154.3966 41° Northeast  Level Estimated
Sat 10:34:00 AM 74.8875 154.7302 41° Northeast  Level Estimated
Sat 10:35:00 AM 74.9870 155.0681 41° Northeast  Level Estimated
Sat 10:36:00 AM 75.0860 155.4103 42° Northeast  Level Estimated
Sat 10:37:00 AM 75.1845 155.7571 42° Northeast  Level Estimated
Sat 10:38:00 AM 75.2824 156.1083 42° Northeast  Level Estimated
Sat 10:39:00 AM 75.3799 156.4642 43° Northeast  Level Estimated
Sat 10:40:00 AM 75.4767 156.8246 43° Northeast  Level Estimated
Sat 10:41:00 AM 75.5731 157.1899 43° Northeast  Level Estimated
Sat 10:42:00 AM 75.6688 157.5599 44° Northeast  Level Estimated
Sat 10:43:00 AM 75.7640 157.9348 44° Northeast  Level Estimated
Sat 10:44:00 AM 75.8586 158.3145 44° Northeast  Level Estimated
Sat 10:45:00 AM 75.9525 158.6993 45° Northeast  Level Estimated
Sat 10:46:00 AM 76.0459 159.0892 45° Northeast  Level Estimated
Sat 10:47:00 AM 76.1386 159.4842 45° Northeast  Level Estimated
Sat 10:48:00 AM 76.2307 159.8843 46° Northeast  Level Estimated
Sat 10:49:00 AM 76.3221 160.2898 46° Northeast  Level Estimated
Sat 10:50:00 AM 76.4129 160.7005 47° Northeast  Level Estimated
Sat 10:51:00 AM 76.5030 161.1167 47° Northeast  Level Estimated
Sat 10:52:00 AM 76.5923 161.5384 47° Northeast  Level Estimated
Sat 10:53:00 AM 76.6810 161.9655 48° Northeast  Level Estimated
Sat 10:54:00 AM 76.7690 162.3983 48° Northeast  Level Estimated
Sat 10:55:00 AM 76.8562 162.8367 49° Northeast  Level Estimated
Sat 10:56:00 AM 76.9426 163.2809 49° Northeast  Level Estimated
Sat 10:57:00 AM 77.0283 163.7309 50° Northeast  Level Estimated
Sat 10:58:00 AM 77.1133 164.1867 50° Northeast  Level Estimated
Sat 10:59:00 AM 77.1974 164.6484 50° Northeast  Level Estimated
Sat 11:00:00 AM 77.2814 165.1202 51° Northeast  Level Estimated
Sat 11:01:00 AM 77.3645 165.5981 51° Northeast  Level Estimated
Sat 11:02:00 AM 77.4469 166.0822 52° Northeast  Level Estimated
Sat 11:03:00 AM 77.5283 166.5725 52° Northeast  Level Estimated
Sat 11:04:00 AM 77.6088 167.0692 53° Northeast  Level Estimated
Sat 11:05:00 AM 77.6884 167.5722 53° Northeast  Level Estimated
Sat 11:06:00 AM 77.7671 168.0817 54° Northeast  Level Estimated
Sat 11:07:00 AM 77.8449 168.5976 54° Northeast  Level Estimated
Sat 11:08:00 AM 77.9216 169.1199 55° Northeast  Level Estimated
Sat 11:09:00 AM 77.9974 169.6489 55° Northeast  Level Estimated
Sat 11:10:00 AM 78.0722 170.1844 56° Northeast  Level Estimated
Sat 11:11:00 AM 78.1459 170.7265 56° Northeast  Level Estimated
Sat 11:12:00 AM 78.2187 171.2753 57° Northeast  Level Estimated
Sat 11:13:00 AM 78.2903 171.8307 57° Northeast  Level Estimated
Sat 11:14:00 AM 78.3608 172.3928 58° Northeast  Level Estimated
Sat 11:15:00 AM 78.4303 172.9617 58° Northeast  Level Estimated
Sat 11:16:00 AM 78.4986 173.5372 59° Northeast  Level Estimated
Sat 11:17:00 AM 78.5658 174.1195 60° Northeast  Level Estimated
Sat 11:18:00 AM 78.6319 174.7085 60° Northeast  Level Estimated
Sat 11:19:00 AM 78.6967 175.3043 61° Northeast  Level Estimated
Sat 11:20:00 AM 78.7604 175.9068 61° Northeast  Level Estimated
Sat 11:21:00 AM 78.8228 176.5159 62° Northeast  Level Estimated
Sat 11:22:00 AM 78.8839 177.1318 63° Northeast  Level Estimated
Sat 11:23:00 AM 78.9439 177.7543 63° Northeast  Level Estimated
Sat 11:24:00 AM 79.0025 178.3835 64° Northeast  Level Estimated
Sat 11:25:00 AM 79.0598 179.0192 64° Northeast  Level Estimated
Sat 11:26:00 AM 79.1158 179.6615 65° Northeast  Level Estimated
Sat 11:27:00 AM 79.1704 -179.6898 66° East  Level Estimated
Sat 11:28:00 AM 79.2232 -179.0403 66° East  Level Estimated
Sat 11:29:00 AM 79.2747 -178.3845 67° East  Level Estimated
Sat 11:30:00 AM 79.3247 -177.7226 68° East  Level Estimated
Sat 11:31:00 AM 79.3734 -177.0546 68° East  Level Estimated
Sat 11:32:00 AM 79.4206 -176.3806 69° East  Level Estimated
Sat 11:33:00 AM 79.4664 -175.7007 69° East  Level Estimated
Sat 11:34:00 AM 79.5108 -175.0151 70° East  Level Estimated
Sat 11:35:00 AM 79.5536 -174.3237 71° East  Level Estimated
Sat 11:35:00 AM 78.0000 -168.9667 94° East 522 601 35,000  Level ETMS Enhanced Traffic Management System
Sat 11:35:28 AM 78.0000 -168.9667 94° East 479 551 35,000  Level Anchorage Center
Sat 11:36:00 AM 79.5950 -173.6269 72° East  Level Estimated
Sat 11:37:00 AM 79.6348 -172.9247 72° East  Level Estimated
Sat 11:38:00 AM 79.6731 -172.2172 73° East  Level Estimated
Sat 11:39:00 AM 79.7098 -171.5046 74° East  Level Estimated
Sat 11:40:00 AM 79.7450 -170.7870 74° East  Level Estimated
Sat 11:41:00 AM 77.6711 -158.7454 104° East 479 551 35,000  Level FlightAware Transoceanic
Sat 11:42:00 AM 77.6360 -158.0871 104° East 479 551 35,000  Level FlightAware Transoceanic
Sat 11:43:00 AM 77.5994 -157.4325 105° East 479 551 35,000  Level FlightAware Transoceanic
Sat 11:44:00 AM 77.5612 -156.7818 106° East 479 551 35,000  Level FlightAware Transoceanic
Sat 11:45:00 AM 77.5215 -156.1351 106° East 479 551 35,000  Level FlightAware Transoceanic
Sat 11:46:00 AM 77.4803 -155.4925 107° East 479 551 35,000  Level FlightAware Transoceanic
Sat 11:47:00 AM 77.4375 -154.8541 107° East 479 551 35,000  Level FlightAware Transoceanic
Sat 11:48:00 AM 77.3932 -154.2201 108° East 479 551 35,000  Level FlightAware Transoceanic
Sat 11:49:00 AM 77.3475 -153.5905 109° East 479 551 35,000  Level FlightAware Transoceanic
Sat 11:50:00 AM 77.3003 -152.9654 109° East 479 551 35,000  Level FlightAware Transoceanic
Sat 11:51:00 AM 77.2516 -152.3450 110° East 479 551 35,000  Level FlightAware Transoceanic
Sat 11:52:00 AM 77.2015 -151.7293 111° Southeast 479 551 35,000  Level FlightAware Transoceanic
Sat 11:53:00 AM 77.1500 -151.1184 111° Southeast 479 551 35,000  Level FlightAware Transoceanic
Sat 11:54:00 AM 77.0971 -150.5123 112° Southeast 479 551 35,000  Level FlightAware Transoceanic
Sat 11:55:00 AM 77.0427 -149.9112 112° Southeast 479 551 35,000  Level FlightAware Transoceanic
Sat 11:56:00 AM 76.9871 -149.3150 113° Southeast 479 551 35,000  Level FlightAware Transoceanic
Sat 11:57:00 AM 76.9301 -148.7239 113° Southeast 479 551 35,000  Level FlightAware Transoceanic
Sat 11:58:00 AM 76.8717 -148.1379 114° Southeast 479 551 35,000  Level FlightAware Transoceanic
Sat 11:59:00 AM 76.8120 -147.5571 115° Southeast 479 551 35,000  Level FlightAware Transoceanic
Sat 12:00:00 PM 76.7511 -146.9815 115° Southeast 479 551 35,000  Level FlightAware Transoceanic
Sat 12:01:00 PM 76.6888 -146.4111 116° Southeast 479 551 35,000  Level FlightAware Transoceanic
Sat 12:02:00 PM 76.6253 -145.8459 116° Southeast 479 551 35,000  Level FlightAware Transoceanic
Sat 12:03:00 PM 76.5606 -145.2861 117° Southeast 479 551 35,000  Level FlightAware Transoceanic
Sat 12:04:00 PM 76.4946 -144.7316 117° Southeast 479 551 35,000  Level FlightAware Transoceanic
Sat 12:05:00 PM 76.4274 -144.1824 118° Southeast 479 551 35,000  Level FlightAware Transoceanic
Sat 12:06:00 PM 76.3590 -143.6385 118° Southeast 479 551 35,000  Level FlightAware Transoceanic
Sat 12:07:00 PM 76.2895 -143.1001 119° Southeast 479 551 35,000  Level FlightAware Transoceanic
Sat 12:08:00 PM 76.2188 -142.5670 119° Southeast 479 551 35,000  Level FlightAware Transoceanic
Sat 12:09:00 PM 76.1470 -142.0393 120° Southeast 479 551 35,000  Level FlightAware Transoceanic
Sat 12:10:00 PM 76.0741 -141.5170 120° Southeast 479 551 35,000 15 Level FlightAware Transoceanic
Sat 12:11:00 PM 76.0498 -140.9753 100° East  Level Estimated
Sat 12:12:00 PM 76.0244 -140.4355 101° East  Level Estimated
Sat 12:13:00 PM 75.9978 -139.8976 101° East  Level Estimated
Sat 12:14:00 PM 75.9701 -139.3618 102° East  Level Estimated
Sat 12:15:00 PM 75.9412 -138.8288 102° East  Level Estimated
Sat 12:16:00 PM 75.9118 -138.3105 103° East  Level Estimated
Sat 12:17:00 PM 75.8814 -137.7943 103° East  Level Estimated
Sat 12:18:00 PM 75.8498 -137.2804 104° East  Level Estimated
Sat 12:19:00 PM 75.8172 -136.7687 104° East  Level Estimated
Sat 12:20:00 PM 75.7835 -136.2594 105° East  Level Estimated
Sat 12:21:00 PM 75.7487 -135.7525 105° East  Level Estimated
Sat 12:22:00 PM 75.7128 -135.2480 106° East  Level Estimated
Sat 12:23:00 PM 75.6759 -134.7460 106° East  Level Estimated
Sat 12:24:00 PM 75.6379 -134.2466 107° East  Level Estimated
Sat 12:25:00 PM 75.5990 -133.7498 107° East  Level Estimated
Sat 12:26:00 PM 75.5589 -133.2557 108° East  Level Estimated
Sat 12:27:00 PM 75.5179 -132.7643 108° East  Level Estimated
Sat 12:28:00 PM 75.4758 -132.2756 109° East  Level Estimated
Sat 12:29:00 PM 75.4327 -131.7898 109° East  Level Estimated
Sat 12:30:00 PM 75.3874 -131.2929 110° East  Level Estimated
Sat 12:31:00 PM 75.3410 -130.7991 110° East  Level Estimated
Sat 12:32:00 PM 75.2935 -130.3084 111° Southeast  Level Estimated
Sat 12:33:00 PM 75.2451 -129.8208 111° Southeast  Level Estimated
Sat 12:34:00 PM 75.1956 -129.3364 112° Southeast  Level Estimated
Sat 12:35:00 PM 75.1451 -128.8552 112° Southeast  Level Estimated
Sat 12:36:00 PM 75.0937 -128.3771 113° Southeast  Level Estimated
Sat 12:37:00 PM 75.0412 -127.9024 113° Southeast  Level Estimated
Sat 12:38:00 PM 74.9878 -127.4308 113° Southeast  Level Estimated
Sat 12:39:00 PM 74.9334 -126.9626 114° Southeast  Level Estimated
Sat 12:40:00 PM 74.8780 -126.4977 114° Southeast  Level Estimated
Sat 12:41:00 PM 74.8217 -126.0362 115° Southeast  Level Estimated
Sat 12:42:00 PM 74.7645 -125.5780 115° Southeast  Level Estimated
Sat 12:43:00 PM 74.7064 -125.1232 116° Southeast  Level Estimated
Sat 12:44:00 PM 74.6473 -124.6717 116° Southeast  Level Estimated
Sat 12:45:00 PM 74.5874 -124.2237 117° Southeast  Level Estimated
Sat 12:46:00 PM 74.5265 -123.7791 117° Southeast  Level Estimated
Sat 12:47:00 PM 74.4648 -123.3379 117° Southeast  Level Estimated
Sat 12:48:00 PM 74.4022 -122.9001 118° Southeast  Level Estimated
Sat 12:49:00 PM 74.3387 -122.4658 118° Southeast  Level Estimated
Sat 12:50:00 PM 74.2744 -122.0350 119° Southeast  Level Estimated
Sat 12:51:00 PM 74.2093 -121.6075 119° Southeast  Level Estimated
Sat 12:52:00 PM 74.1433 -121.1835 120° Southeast  Level Estimated
Sat 12:53:00 PM 74.0765 -120.7630 120° Southeast  Level Estimated
Sat 12:54:00 PM 74.0089 -120.3459 120° Southeast  Level Estimated
Sat 12:55:00 PM 73.9405 -119.9322 121° Southeast  Level Estimated
Sat 12:56:00 PM 73.8713 -119.5220 121° Southeast  Level Estimated
Sat 12:57:00 PM 73.8013 -119.1152 122° Southeast  Level Estimated
Sat 12:58:00 PM 73.7306 -118.7118 122° Southeast  Level Estimated
Sat 12:59:00 PM 73.6591 -118.3118 122° Southeast  Level Estimated
Sat 01:00:00 PM 73.5869 -117.9153 123° Southeast  Level Estimated
Sat 01:01:00 PM 73.5139 -117.5221 123° Southeast  Level Estimated
Sat 01:02:00 PM 73.4402 -117.1324 123° Southeast  Level Estimated
Sat 01:03:00 PM 73.3658 -116.7460 124° Southeast  Level Estimated
Sat 01:04:00 PM 73.2907 -116.3629 124° Southeast  Level Estimated
Sat 01:05:00 PM 73.2154 -115.9860 125° Southeast  Level Estimated
Sat 01:06:00 PM 73.1394 -115.6124 125° Southeast  Level Estimated
Sat 01:07:00 PM 73.0628 -115.2421 125° Southeast  Level Estimated
Sat 01:08:00 PM 72.9855 -114.8749 126° Southeast  Level Estimated
Sat 01:09:00 PM 72.9076 -114.5111 126° Southeast  Level Estimated
Sat 01:10:00 PM 72.8290 -114.1504 126° Southeast  Level Estimated
Sat 01:11:00 PM 72.7498 -113.7930 127° Southeast  Level Estimated
Sat 01:12:00 PM 72.6700 -113.4387 127° Southeast  Level Estimated
Sat 01:13:00 PM 72.5895 -113.0876 127° Southeast  Level Estimated
Sat 01:14:00 PM 72.5085 -112.7396 128° Southeast  Level Estimated
Sat 01:15:00 PM 72.4268 -112.3948 128° Southeast  Level Estimated
Sat 01:16:00 PM 72.3446 -112.0530 128° Southeast  Level Estimated
Sat 01:17:00 PM 72.2617 -111.7144 129° Southeast  Level Estimated
Sat 01:18:00 PM 72.1783 -111.3788 129° Southeast  Level Estimated
Sat 01:19:00 PM 72.0943 -111.0462 129° Southeast  Level Estimated
Sat 01:20:00 PM 72.0098 -110.7167 130° Southeast  Level Estimated
Sat 01:21:00 PM 71.9247 -110.3901 130° Southeast  Level Estimated
Sat 01:22:00 PM 71.8391 -110.0665 130° Southeast  Level Estimated
Sat 01:23:00 PM 71.7529 -109.7458 131° Southeast  Level Estimated
Sat 01:24:00 PM 71.6662 -109.4281 131° Southeast  Level Estimated
Sat 01:25:00 PM 71.5790 -109.1133 131° Southeast  Level Estimated
Sat 01:26:00 PM 71.4912 -108.8013 131° Southeast  Level Estimated
Sat 01:27:00 PM 71.4030 -108.4922 132° Southeast  Level Estimated
Sat 01:28:00 PM 71.3142 -108.1859 132° Southeast  Level Estimated
Sat 01:29:00 PM 71.2250 -107.8824 132° Southeast  Level Estimated
Sat 01:30:00 PM 71.1353 -107.5817 133° Southeast  Level Estimated
Sat 01:31:00 PM 71.0451 -107.2838 133° Southeast  Level Estimated
Sat 01:32:00 PM 70.9544 -106.9885 133° Southeast  Level Estimated
Sat 01:33:00 PM 70.8633 -106.6960 133° Southeast  Level Estimated
Sat 01:34:00 PM 70.7717 -106.4061 134° Southeast  Level Estimated
Sat 01:35:00 PM 70.6795 -106.1186 134° Southeast  Level Estimated
Sat 01:36:00 PM 70.5869 -105.8337 134° Southeast  Level Estimated
Sat 01:37:00 PM 70.4939 -105.5514 135° Southeast  Level Estimated
Sat 01:38:00 PM 70.4004 -105.2716 135° Southeast  Level Estimated
Sat 01:39:00 PM 70.3065 -104.9944 135° Southeast  Level Estimated
Sat 01:40:00 PM 70.2122 -104.7198 135° Southeast  Level Estimated
Sat 01:41:00 PM 70.1174 -104.4477 136° Southeast  Level Estimated
Sat 01:42:00 PM 70.0223 -104.1780 136° Southeast  Level Estimated
Sat 01:43:00 PM 69.9267 -103.9108 136° Southeast  Level Estimated
Sat 01:44:00 PM 69.8308 -103.6461 136° Southeast  Level Estimated
Sat 01:45:00 PM 69.7344 -103.3837 137° Southeast  Level Estimated
Sat 01:46:00 PM 69.6377 -103.1237 137° Southeast  Level Estimated
Sat 01:47:00 PM 69.5406 -102.8661 137° Southeast  Level Estimated
Sat 01:48:00 PM 69.4431 -102.6108 137° Southeast  Level Estimated
Sat 01:49:00 PM 69.3452 -102.3579 138° Southeast  Level Estimated
Sat 01:50:00 PM 69.2470 -102.1072 138° Southeast  Level Estimated
Sat 01:51:00 PM 69.1484 -101.8588 138° Southeast  Level Estimated
Sat 01:52:00 PM 69.0495 -101.6126 138° Southeast  Level Estimated
Sat 01:53:00 PM 68.9502 -101.3687 139° Southeast  Level Estimated
Sat 01:54:00 PM 68.8505 -101.1269 139° Southeast  Level Estimated
Sat 01:55:00 PM 68.7505 -100.8873 139° Southeast  Level Estimated
Sat 01:56:00 PM 68.6502 -100.6498 139° Southeast  Level Estimated
Sat 01:57:00 PM 68.5496 -100.4145 139° Southeast  Level Estimated
Sat 01:58:00 PM 68.4486 -100.1812 140° Southeast  Level Estimated
Sat 01:59:00 PM 68.3473 -99.9501 140° Southeast  Level Estimated
Sat 02:00:00 PM 68.2457 -99.7209 140° Southeast  Level Estimated
Sat 02:01:00 PM 68.1431 -99.4922 140° Southeast  Level Estimated
Sat 02:02:00 PM 68.0401 -99.2655 140° Southeast  Level Estimated
Sat 02:03:00 PM 67.9368 -99.0408 141° Southeast  Level Estimated
Sat 02:04:00 PM 67.8332 -98.8181 141° Southeast  Level Estimated
Sat 02:05:00 PM 67.7293 -98.5973 141° Southeast  Level Estimated
Sat 02:06:00 PM 67.6251 -98.3785 141° Southeast  Level Estimated
Sat 02:07:00 PM 67.5206 -98.1617 142° Southeast  Level Estimated
Sat 02:08:00 PM 67.4158 -97.9467 142° Southeast  Level Estimated
Sat 02:09:00 PM 67.3107 -97.7336 142° Southeast  Level Estimated
Sat 02:10:00 PM 67.2054 -97.5224 142° Southeast  Level Estimated
Sat 02:11:00 PM 67.0998 -97.3131 142° Southeast  Level Estimated
Sat 02:12:00 PM 66.9939 -97.1055 143° Southeast  Level Estimated
Sat 02:13:00 PM 66.8884 -96.9010 143° Southeast  Level Estimated
Sat 02:14:00 PM 66.7826 -96.6983 143° Southeast  Level Estimated
Sat 02:15:00 PM 66.6766 -96.4973 143° Southeast  Level Estimated
Sat 02:16:00 PM 66.5703 -96.2980 143° Southeast  Level Estimated
Sat 02:17:00 PM 66.4638 -96.1005 143° Southeast  Level Estimated
Sat 02:18:00 PM 66.3570 -95.9046 144° Southeast  Level Estimated
Sat 02:18:02 PM 64.3500 -99.5000 145° Southeast 500 575 37,000  Level Edmonton Center
Sat 02:19:00 PM 66.2500 -95.7104 144° Southeast  Level Estimated
Sat 02:19:02 PM 64.2333 -99.2833 141° Southeast 500 575 37,000  Level Edmonton Center
Sat 02:20:00 PM 66.1427 -95.5178 144° Southeast  Level Estimated
Sat 02:20:02 PM 64.1500 -99.0833 134° Southeast 500 575 37,000  Level Edmonton Center
Sat 02:21:00 PM 66.0352 -95.3268 144° Southeast  Level Estimated
Sat 02:21:02 PM 64.0333 -98.8667 141° Southeast 500 575 37,000  Level Edmonton Center
Sat 02:22:00 PM 65.9275 -95.1375 144° Southeast  Level Estimated
Sat 02:22:02 PM 63.9500 -98.6500 131° Southeast 500 575 37,000  Level Edmonton Center
Sat 02:23:00 PM 65.8195 -94.9497 145° Southeast  Level Estimated
Sat 02:23:02 PM 63.8333 -98.4500 143° Southeast 500 575 37,000  Level Edmonton Center
Sat 02:24:02 PM 63.7167 -98.2500 143° Southeast 500 575 37,000  Level Edmonton Center
Sat 02:25:02 PM 63.6333 -98.0333 131° Southeast 490 564 37,000  Level Edmonton Center
Sat 02:26:02 PM 63.5167 -97.8333 143° Southeast 490 564 37,000  Level Edmonton Center
Sat 02:27:02 PM 63.4167 -97.6333 138° Southeast 490 564 37,000  Level Edmonton Center
Sat 02:28:02 PM 63.3000 -97.4333 142° Southeast 490 564 37,000  Level Edmonton Center
Sat 02:29:02 PM 63.2167 -97.2333 133° Southeast 490 564 37,000  Level Edmonton Center
Sat 02:30:02 PM 63.1000 -97.0333 142° Southeast 480 552 37,000  Level Edmonton Center
Sat 02:31:02 PM 63.0000 -96.8333 138° Southeast 490 564 37,000  Level Edmonton Center
Sat 02:32:02 PM 62.8833 -96.6333 142° Southeast 490 564 37,000  Level Edmonton Center
Sat 02:33:02 PM 62.7833 -96.4333 138° Southeast 490 564 37,000  Level Edmonton Center
Sat 02:34:02 PM 62.6667 -96.2500 144° Southeast 480 552 37,000  Level Edmonton Center
Sat 02:35:02 PM 62.5833 -96.0500 132° Southeast 490 564 37,000  Level Edmonton Center
Sat 02:36:02 PM 62.4667 -95.8667 144° Southeast 490 564 37,000  Level Edmonton Center
Sat 02:37:02 PM 62.3667 -95.6833 140° Southeast 490 564 37,000  Level Edmonton Center
Sat 02:38:02 PM 62.2500 -95.4833 141° Southeast 500 575 37,000  Level Edmonton Center
Sat 02:39:02 PM 62.1333 -95.3000 144° Southeast 500 575 37,000  Level Edmonton Center
Sat 02:40:02 PM 62.0333 -95.1167 139° Southeast 490 564 37,000  Level Edmonton Center
Sat 02:41:02 PM 61.9167 -94.9333 143° Southeast 500 575 37,000  Level Edmonton Center
Sat 02:42:02 PM 61.8167 -94.7500 139° Southeast 490 564 37,000  Level Edmonton Center
Sat 02:43:02 PM 61.7000 -94.5667 143° Southeast 490 564 37,000  Level Edmonton Center
Sat 02:44:02 PM 61.5833 -94.4000 146° Southeast 490 564 37,000  Level Edmonton Center
Sat 02:45:02 PM 61.4833 -94.2167 139° Southeast 490 564 37,000  Level Edmonton Center
Sat 02:46:02 PM 61.3667 -94.0333 143° Southeast 490 564 37,000  Level Edmonton Center
Sat 02:47:02 PM 61.2667 -93.8667 141° Southeast 490 564 37,000  Level Edmonton Center
Sat 02:48:02 PM 61.1500 -93.6833 143° Southeast 490 564 37,000  Level Edmonton Center
Sat 02:49:02 PM 61.0500 -93.5167 141° Southeast 490 564 37,000  Level Edmonton Center
Sat 02:50:02 PM 60.9333 -93.3500 145° Southeast 490 564 37,000  Level Edmonton Center
Sat 02:51:02 PM 60.8333 -93.1667 138° Southeast 490 564 37,000  Level Edmonton Center
Sat 02:52:02 PM 60.7167 -93.0000 145° Southeast 490 564 37,000  Level Edmonton Center
Sat 02:53:02 PM 60.6000 -92.8333 145° Southeast 490 564 37,000  Level Edmonton Center
Sat 02:54:02 PM 60.5000 -92.6667 141° Southeast 490 564 37,000  Level Edmonton Center
Sat 02:55:02 PM 60.3833 -92.5000 145° Southeast 490 564 37,000  Level Edmonton Center
Sat 02:56:02 PM 60.2667 -92.3333 145° Southeast 490 564 37,000  Level Edmonton Center
Sat 02:57:02 PM 60.1500 -92.1667 145° Southeast 490 564 37,000  Level Edmonton Center
Sat 02:58:02 PM 60.0500 -92.0000 140° Southeast 490 564 37,000  Level Edmonton Center
Sat 02:59:02 PM 59.9333 -91.8500 147° Southeast 490 564 37,000  Level Edmonton Center
Sat 03:00:02 PM 59.8167 -91.6833 144° Southeast 490 564 37,000  Level Edmonton Center
Sat 03:01:02 PM 59.7167 -91.5167 140° Southeast 480 552 37,000  Level Edmonton Center
Sat 03:02:02 PM 59.5833 -91.3667 150° Southeast 490 564 37,000  Level Edmonton Center
Sat 03:03:02 PM 59.4833 -91.2000 140° Southeast 490 564 37,000  Level Edmonton Center
Sat 03:04:02 PM 59.3667 -91.0833 153° Southeast 490 564 37,000  Level Edmonton Center
Sat 03:05:02 PM 59.2667 -90.9333 143° Southeast 490 564 37,000  Level Edmonton Center
Sat 03:06:02 PM 59.1500 -90.7667 144° Southeast 490 564 37,000  Level Edmonton Center
Sat 03:07:02 PM 59.0333 -90.6167 146° Southeast 490 564 37,000  Level Edmonton Center
Sat 03:08:02 PM 58.9167 -90.4667 146° Southeast 490 564 37,000  Level Edmonton Center
Sat 03:09:02 PM 58.8167 -90.3167 142° Southeast 490 564 37,000  Level Edmonton Center
Sat 03:10:02 PM 58.7000 -90.1667 146° Southeast 480 552 37,000  Level Edmonton Center
Sat 03:11:02 PM 58.5833 -90.0500 152° Southeast 490 564 37,000  Level Edmonton Center
Sat 03:12:02 PM 58.4667 -89.9000 146° Southeast 490 564 37,000  Level Edmonton Center
Sat 03:13:02 PM 58.3500 -89.7500 146° Southeast 490 564 37,000  Level Edmonton Center
Sat 03:14:02 PM 58.2500 -89.6000 142° Southeast 480 552 37,000  Level Edmonton Center
Sat 03:15:02 PM 58.1167 -89.4500 149° Southeast 490 564 37,000  Level Edmonton Center
Sat 03:16:02 PM 58.0000 -89.3167 149° Southeast 490 564 37,000  Level Edmonton Center
Sat 03:17:02 PM 57.9000 -89.1667 141° Southeast 490 564 37,000  Level Edmonton Center
Sat 03:18:02 PM 57.7667 -89.0333 152° Southeast 490 564 37,000  Level Edmonton Center
Sat 03:19:02 PM 57.6667 -88.8833 141° Southeast 480 552 37,000  Level Edmonton Center
Sat 03:20:02 PM 57.5500 -88.7333 145° Southeast 490 564 37,000  Level Edmonton Center
Sat 03:21:02 PM 57.4167 -88.6000 152° Southeast 480 552 37,000  Level Edmonton Center
Sat 03:22:02 PM 57.3167 -88.4833 148° Southeast 480 552 37,000  Level Edmonton Center
Sat 03:23:02 PM 57.2000 -88.3500 148° Southeast 490 564 37,000  Level Edmonton Center
Sat 03:24:02 PM 57.0833 -88.2167 148° Southeast 480 552 37,000  Level Edmonton Center
Sat 03:25:02 PM 56.9667 -88.0833 148° Southeast 480 552 37,000  Level Edmonton Center
Sat 03:26:02 PM 56.8667 -87.9333 141° Southeast 480 552 37,000  Level Edmonton Center
Sat 03:27:02 PM 56.7333 -87.8000 151° Southeast 480 552 37,000  Level Edmonton Center
Sat 03:28:02 PM 56.6333 -87.6667 144° Southeast 480 552 37,000  Level Edmonton Center
Sat 03:29:02 PM 56.5167 -87.5667 155° Southeast 480 552 37,000  Level Edmonton Center
Sat 03:30:02 PM 56.4000 -87.4333 148° Southeast 480 552 37,000  Level Edmonton Center
Sat 03:31:02 PM 56.2833 -87.3000 148° Southeast 490 564 37,000  Level Edmonton Center
Sat 03:32:02 PM 56.1500 -87.1667 151° Southeast 490 564 37,000  Level Edmonton Center
Sat 03:33:02 PM 56.0500 -87.0667 151° Southeast 480 552 37,000  Level Edmonton Center
Sat 03:34:02 PM 55.9500 -86.9333 143° Southeast 480 552 37,000  Level Edmonton Center
Sat 03:35:02 PM 55.8167 -86.8000 151° Southeast 480 552 37,000  Level Edmonton Center
Sat 03:36:02 PM 55.7167 -86.6667 143° Southeast 480 552 37,000  Level Edmonton Center
Sat 03:37:02 PM 55.5833 -86.5500 154° Southeast 480 552 37,000  Level Edmonton Center
Sat 03:38:02 PM 55.4833 -86.4167 143° Southeast 480 552 37,000  Level Edmonton Center
Sat 03:39:02 PM 55.3667 -86.3167 154° Southeast 480 552 37,000  Level Edmonton Center
Sat 03:40:02 PM 55.2500 -86.2000 150° Southeast 480 552 37,000  Level Edmonton Center
Sat 03:41:02 PM 55.1333 -86.0667 147° Southeast 480 552 37,000  Level Edmonton Center
Sat 03:42:02 PM 55.0167 -85.9500 150° Southeast 480 552 37,000  Level Edmonton Center
Sat 03:43:02 PM 54.9000 -85.8167 147° Southeast 480 552 37,000  Level Edmonton Center
Sat 03:44:02 PM 54.7833 -85.7000 150° Southeast 480 552 37,000  Level Edmonton Center
Sat 03:45:02 PM 54.6667 -85.5667 147° Southeast 480 552 37,000  Level Edmonton Center
Sat 03:46:08 PM 54.5833 -85.5667 180° South 480 552 37,000  Level Montreal Center
Sat 03:47:02 PM 54.4333 -85.3333 138° Southeast 480 552 37,000  Level Edmonton Center
Sat 03:48:02 PM 54.3333 -85.2000 142° Southeast 480 552 37,000  Level Edmonton Center
Sat 03:49:02 PM 54.2167 -85.0833 150° Southeast 490 564 37,000  Level Edmonton Center
Sat 03:50:02 PM 54.1000 -84.9333 143° Southeast 490 564 37,000  Level Edmonton Center
Sat 03:51:08 PM 54.0000 -84.9500 186° South 490 564 37,000  Level Montreal Center
Sat 03:52:02 PM 53.8667 -84.7000 132° Southeast 490 564 37,000  Level Edmonton Center
Sat 03:53:02 PM 53.7667 -84.5667 142° Southeast 490 564 37,000  Level Edmonton Center
Sat 03:54:02 PM 53.6333 -84.4667 156° South 490 564 37,000  Level Edmonton Center
Sat 03:55:02 PM 53.5167 -84.3167 143° Southeast 490 564 37,000  Level Edmonton Center
Sat 03:56:02 PM 53.4000 -84.2000 149° Southeast 490 564 37,000  Level Edmonton Center
Sat 03:57:08 PM 53.3167 -84.2000 180° South 490 564 37,000  Level Montreal Center
Sat 03:58:08 PM 53.1833 -84.0667 149° Southeast 500 575 37,000  Level Montreal Center
Sat 03:59:08 PM 53.0667 -83.9667 153° Southeast 490 564 37,000  Level Montreal Center
Sat 04:00:08 PM 52.9500 -83.8333 145° Southeast 490 564 37,000  Level Montreal Center
Sat 04:02:08 PM 52.7167 -83.5833 147° Southeast 490 564 37,000  Level Montreal Center
Sat 04:03:08 PM 52.6000 -83.4500 145° Southeast 500 575 37,000  Level Montreal Center
Sat 04:04:02 PM 52.4500 -83.2500 141° Southeast 490 564 37,000  Level Edmonton Center
Sat 04:05:02 PM 52.3500 -83.1333 145° Southeast 490 564 37,000  Level Edmonton Center
Sat 04:06:08 PM 52.2500 -83.1167 174° South 490 564 37,000  Level Montreal Center
Sat 04:07:02 PM 52.1000 -82.9167 141° Southeast 490 564 37,000  Level Edmonton Center
Sat 04:08:02 PM 51.9833 -82.7833 145° Southeast 490 564 37,000  Level Edmonton Center
Sat 04:09:08 PM 51.9000 -82.7667 173° South 490 564 37,000  Level Montreal Center
Sat 04:10:08 PM 51.7667 -82.6667 155° Southeast 490 564 37,000  Level Montreal Center
Sat 04:11:08 PM 51.6500 -82.5667 152° Southeast 490 564 37,000  Level Montreal Center
Sat 04:12:08 PM 51.5500 -82.4333 140° Southeast 490 564 37,000  Level Montreal Center
Sat 04:13:08 PM 51.4333 -82.3167 148° Southeast 490 564 37,000  Level Montreal Center
Sat 04:14:08 PM 51.3000 -82.2167 155° Southeast 490 564 37,000  Level Montreal Center
Sat 04:15:08 PM 51.2000 -82.1000 144° Southeast 490 564 37,000  Level Montreal Center
Sat 04:16:08 PM 51.0667 -82.0000 155° Southeast 500 575 37,000  Level Montreal Center
Sat 04:17:08 PM 50.9500 -81.8667 144° Southeast 500 575 37,000  Level Montreal Center
Sat 04:18:08 PM 50.8167 -81.7500 151° Southeast 500 575 37,000  Level Montreal Center
Sat 04:19:08 PM 50.7167 -81.6500 148° Southeast 500 575 37,000  Level Montreal Center
Sat 04:20:08 PM 50.5833 -81.5667 158° South 500 575 37,000  Level Montreal Center
Sat 04:21:08 PM 50.4667 -81.4333 144° Southeast 500 575 37,000  Level Montreal Center
Sat 04:22:08 PM 50.3333 -81.3167 151° Southeast 500 575 37,000  Level Montreal Center
Sat 04:23:08 PM 50.2167 -81.2333 155° Southeast 500 575 37,000  Level Montreal Center
Sat 04:24:08 PM 50.1000 -81.1000 144° Southeast 500 575 37,000  Level Montreal Center
Sat 04:25:08 PM 49.9667 -80.9833 151° Southeast 500 575 37,000  Level Montreal Center
Sat 04:26:08 PM 49.8500 -80.9000 155° Southeast 500 575 37,000  Level Montreal Center
Sat 04:27:08 PM 49.7167 -80.7833 150° Southeast 500 575 37,000  Level Montreal Center
Sat 04:28:08 PM 49.6000 -80.6833 151° Southeast 500 575 37,000  Level Montreal Center
Sat 04:29:08 PM 49.5000 -80.6000 152° Southeast 500 575 37,000  Level Montreal Center
Sat 04:30:08 PM 49.3667 -80.4833 150° Southeast 490 564 37,000  Level Montreal Center
Sat 04:31:08 PM 49.2500 -80.4000 155° Southeast 490 564 37,000  Level Montreal Center
Sat 04:32:08 PM 49.1333 -80.2833 147° Southeast 480 552 37,000  Level Montreal Center
Sat 04:33:08 PM 49.0000 -80.2000 158° South 490 564 37,000  Level Montreal Center
Sat 04:34:08 PM 48.8833 -80.0833 147° Southeast 480 552 37,000  Level Montreal Center
Sat 04:35:08 PM 48.7833 -80.0000 151° Southeast 480 552 37,000  Level Montreal Center
Sat 04:36:08 PM 48.6667 -79.9167 155° Southeast 480 552 37,000  Level Montreal Center
Sat 04:37:08 PM 48.5500 -79.8000 146° Southeast 480 552 37,000  Level Montreal Center
Sat 04:38:08 PM 48.4167 -79.7167 157° South 490 564 37,000  Level Montreal Center
Sat 04:39:08 PM 48.3000 -79.6000 146° Southeast 490 564 37,000  Level Montreal Center
Sat 04:40:08 PM 48.1667 -79.5167 157° South 490 564 37,000  Level Montreal Center
Sat 04:41:08 PM 48.0500 -79.4167 150° Southeast 480 552 37,000  Level Montreal Center
Sat 04:42:08 PM 47.9333 -79.3333 154° Southeast 480 552 37,000  Level Montreal Center
Sat 04:43:08 PM 47.8333 -79.2167 142° Southeast 480 552 37,000  Level Montreal Center
Sat 04:44:08 PM 47.7167 -79.1333 154° Southeast 480 552 37,000  Level Montreal Center
Sat 04:45:08 PM 47.5833 -79.0500 157° South 480 552 37,000  Level Montreal Center
Sat 04:46:08 PM 47.4667 -78.9500 150° Southeast 480 552 37,000  Level Montreal Center
Sat 04:51:38 PM 46.8227 -78.4492 152° Southeast 470 541 37,000  Level FlightAware ADS-B (CYYZ)
Sat 04:52:24 PM 46.7358 -78.3844 152° Southeast 466 536 37,000  Level FlightAware ADS-B (CYYZ)
Sat 04:53:08 PM 46.6497 -78.3203 152° Southeast 466 536 37,000  Level FlightAware ADS-B (CYYZ)
Sat 04:53:54 PM 46.5647 -78.2573 152° Southeast 464 534 37,000  Level FlightAware ADS-B (CYYZ)
Sat 04:54:39 PM 46.4756 -78.1916 152° Southeast 468 539 37,000  Level FlightAware ADS-B (CYYZ)
Sat 04:55:09 PM 46.4177 -78.1488 153° Southeast 467 537 37,000  Level FlightAware ADS-B (CYYZ)
Sat 04:55:54 PM 46.3310 -78.0851 153° Southeast 467 537 37,000  Level FlightAware ADS-B (CYYZ)
Sat 04:56:39 PM 46.2441 -78.0217 153° Southeast 470 541 37,000  Level FlightAware ADS-B (CYYZ)
Sat 04:57:09 PM 46.1862 -77.9794 153° Southeast 467 537 37,000  Level FlightAware ADS-B (CYYZ)
Sat 04:57:55 PM 46.0994 -77.9163 153° Southeast 465 535 37,000  Level FlightAware ADS-B (CYYZ)
Sat 04:58:40 PM 46.0140 -77.8545 153° Southeast 463 533 37,000  Level FlightAware ADS-B (CYYZ)
Sat 04:58:54 PM 45.9900 -77.8370 153° Southeast 463 533 37,000  Level FlightAware ADS-B
Sat 04:59:25 PM 45.9264 -77.7911 153° Southeast 462 532 37,000  Level FlightAware ADS-B (CYYZ)
Sat 04:59:26 PM 45.9272 -77.7916 153° Southeast 463 533 37,000  Level FlightAware ADS-B
Sat 05:00:06 PM 45.8478 -77.7346 153° Southeast 461 531 37,000  Level FlightAware ADS-B
Sat 05:00:10 PM 45.8404 -77.7293 153° Southeast 460 529 37,000  Level FlightAware ADS-B (CYYZ)
Sat 05:00:36 PM 45.7944 -77.6963 153° Southeast 456 525 37,000  Level FlightAware ADS-B
Sat 05:00:55 PM 45.7550 -77.6681 153° Southeast 453 521 37,000  Level FlightAware ADS-B (CYYZ)
Sat 05:01:07 PM 45.7332 -77.6523 153° Southeast 453 521 37,000  Level FlightAware ADS-B
Sat 05:01:37 PM 45.6769 -77.6128 155° Southeast 451 519 37,000  Level FlightAware ADS-B
Sat 05:01:40 PM 45.6711 -77.6090 155° Southeast 450 518 37,000  Level FlightAware ADS-B (CYYZ)
Sat 05:02:10 PM 45.6134 -77.5732 157° South 445 512 37,000  Level FlightAware ADS-B (CYYZ)
Sat 05:02:16 PM 45.6019 -77.5664 158° South 444 511 37,000  Level FlightAware ADS-B
Sat 05:02:46 PM 45.5485 -77.5353 158° South 442 509 37,000  Level FlightAware ADS-B
Sat 05:02:55 PM 45.5280 -77.5235 157° South 441 507 37,000  Level FlightAware ADS-B (CYYZ)
Sat 05:03:16 PM 45.4902 -77.5015 158° South 443 510 37,000  Level FlightAware ADS-B
Sat 05:03:25 PM 45.4718 -77.4909 157° South 443 510 37,000  Level FlightAware ADS-B (CYYZ)
Sat 05:03:47 PM 45.4301 -77.4668 158° South 446 513 37,000  Level FlightAware ADS-B
Sat 05:04:10 PM 45.3866 -77.4415 157° South 448 516 37,000  Level FlightAware ADS-B (CYYZ)
Sat 05:04:17 PM 45.3760 -77.4354 158° South 449 517 37,000  Level FlightAware ADS-B
Sat 05:04:40 PM 45.3309 -77.4093 157° South 452 520 37,000  Level FlightAware ADS-B (CYYZ)
Sat 05:04:57 PM 45.2997 -77.3913 158° South 454 522 37,000  Level FlightAware ADS-B
Sat 05:05:26 PM 45.2401 -77.3569 157° South 456 525 37,000  Level FlightAware ADS-B (CYYZ)
Sat 05:05:27 PM 45.2382 -77.3557 158° South 457 526 37,000  Level FlightAware ADS-B
Sat 05:05:57 PM 45.1792 -77.3218 158° South 458 527 37,000  Level FlightAware ADS-B
Sat 05:06:11 PM 45.1512 -77.3057 157° South 458 527 37,000  Level FlightAware ADS-B (CYYZ)
Sat 05:06:28 PM 45.1178 -77.2865 158° South 459 528 37,000  Level FlightAware ADS-B
Sat 05:06:56 PM 45.0632 -77.2553 157° South 458 527 37,000  Level FlightAware ADS-B (CYYZ)
Sat 05:07:08 PM 45.0414 -77.2428 158° South 460 529 37,000  Level FlightAware ADS-B
Sat 05:07:26 PM 45.0034 -77.2210 157° South 461 531 37,000  Level FlightAware ADS-B (CYYZ)
Sat 05:07:38 PM 44.9803 -77.2079 158° South 462 532 37,000  Level FlightAware ADS-B
Sat 05:08:11 PM 44.9143 -77.1703 157° South 460 529 37,000  Level FlightAware ADS-B (CYYZ)
Sat 05:08:18 PM 44.9014 -77.1629 158° South 460 529 37,000  Level FlightAware ADS-B
Sat 05:08:42 PM 44.8544 -77.1363 158° South 457 526 37,000  Level FlightAware ADS-B (CYYZ)
Sat 05:08:48 PM 44.8442 -77.1306 158° South 456 525 37,000  Level FlightAware ADS-B
Sat 05:09:26 PM 44.7673 -77.0869 157° South 450 518 37,000  Level FlightAware ADS-B (CYYZ)
Sat 05:09:29 PM 44.7632 -77.0846 158° South 451 519 37,000  Level FlightAware ADS-B
Sat 05:10:00 PM 44.7353 -77.0688 158° South 447 514 37,000  Level FlightAware ADS-B
Sat 05:10:12 PM 44.6803 -77.0379 158° South 445 512 37,000  Level FlightAware ADS-B (CYYZ)
Sat 05:10:38 PM 44.6315 -77.0104 158° South 446 513 37,000  Level FlightAware ADS-B
Sat 05:10:41 PM 44.6236 -77.0060 158° South 446 513 37,000  Level FlightAware ADS-B (CYYZ)
Sat 05:11:08 PM 44.5736 -76.9779 158° South 447 514 37,000  Level FlightAware ADS-B
Sat 05:11:27 PM 44.5404 -76.9592 158° South 446 513 37,000  Level FlightAware ADS-B (CYYZ)
Sat 05:11:38 PM 44.5145 -76.9448 158° South 447 514 37,000 -571 Level FlightAware ADS-B
Sat 05:12:09 PM 44.4570 -76.9125 158° South 443 510 36,600 -706 Descending FlightAware ADS-B
Sat 05:12:12 PM 44.4515 -76.9094 158° South 442 509 36,600 -1,200 Level FlightAware ADS-B (CYYZ)
Sat 05:12:39 PM 44.4015 -76.8813 158° South 440 506 36,000 -1,600 Descending FlightAware ADS-B
Sat 05:12:57 PM 44.3652 -76.8612 158° South 436 502 35,400 -2,769 Descending FlightAware ADS-B (CYYZ)
Sat 05:13:18 PM 44.3252 -76.8390 158° South 442 509 34,200 -3,231 Descending FlightAware ADS-B
Sat 05:13:36 PM 44.2920 -76.8210 158° South 449 517 33,300 -3,000 Descending FlightAware ADS-B
Sat 05:13:42 PM 44.2800 -76.8142 158° South 450 518 33,000 -3,231 Descending FlightAware ADS-B (CYYZ)
Sat 05:13:49 PM 44.2659 -76.8064 158° South 453 521 32,600 -3,405 Descending FlightAware ADS-B
Sat 05:14:19 PM 44.2092 -76.7751 158° South 468 539 30,900 -3,077 Descending FlightAware ADS-B
Sat 05:14:28 PM 44.1900 -76.7644 158° South 470 541 30,600 -1,935 Descending FlightAware ADS-B (CYYZ)
Sat 05:14:50 PM 44.1533 -76.7441 158° South 473 544 29,900 -2,609 Descending FlightAware ADS-B (EGCB)
Sat 05:14:51 PM 44.1410 -76.7370 158° South 474 545 29,600 -2,087 Descending FlightAware ADS-B
Sat 05:15:13 PM 44.0975 -76.7129 158° South 472 543 29,100 -1,588 Descending FlightAware ADS-B (CYYZ)
Sat 05:15:25 PM 44.0720 -76.6990 158° South 471 542 28,700 -1,875 Descending FlightAware ADS-B
Sat 05:15:29 PM 44.0662 -76.6954 158° South 469 540 28,600 -1,455 Descending FlightAware ADS-B
Sat 05:15:58 PM 44.0077 -76.6631 158° South 464 534 27,900 -1,273 Descending FlightAware ADS-B (CYYZ)
Sat 05:16:02 PM 44.0010 -76.6590 158° South 465 535 27,900  Level FlightAware ADS-B
Sat 05:16:03 PM 44.0053 -76.6618 158° South 464 534 27,900 -1,615 Level FlightAware ADS-B (EGCB)
Sat 05:16:28 PM 43.9474 -76.6300 158° South 461 531 27,200 -1,588 Descending FlightAware ADS-B (CYYZ)
Sat 05:16:37 PM 43.9300 -76.6200 158° South 461 531 27,000 -1,200 Descending FlightAware ADS-B
Sat 05:16:38 PM 43.9446 -76.6284 158° South 461 531 27,000  Level FlightAware ADS-B
Sat 05:16:58 PM 43.8911 -76.5992 158° South 457 526 27,000  Level FlightAware ADS-B (CYYZ)
Sat 05:17:13 PM 43.8590 -76.5810 158° South 457 526 27,000  Level FlightAware ADS-B
Sat 05:17:43 PM 43.7988 -76.5488 158° South 457 526 27,000  Level FlightAware ADS-B (CYYZ)
Sat 05:17:46 PM 43.8697 -76.5874 158° South 457 526 27,000  Level FlightAware ADS-B (EGCB)
Sat 05:18:13 PM 43.7414 -76.5176 158° South 454 522 27,000  Level FlightAware ADS-B (CYYZ)
Sat 05:18:16 PM 43.8524 -76.5780 159° South 453 521 27,000  Level FlightAware ADS-B
Sat 05:18:49 PM 43.6700 -76.4790 158° South 457 526 27,000  Level FlightAware ADS-B
Sat 05:18:58 PM 43.6534 -76.4699 158° South 458 527 27,000  Level FlightAware ADS-B (CYYZ)
Sat 05:19:07 PM 43.6441 -76.4648 159° South 459 528 27,000  Level FlightAware ADS-B
Sat 05:19:26 PM 43.5990 -76.4400 158° South 461 531 27,000  Level FlightAware ADS-B
Sat 05:19:43 PM 43.5631 -76.4210 158° South 461 531 27,000  Level FlightAware ADS-B (CYYZ)
Sat 05:20:01 PM 43.5270 -76.4020 158° South 463 533 27,000  Level FlightAware ADS-B
Sat 05:20:14 PM 43.5039 -76.3888 158° South 463 533 27,000  Level FlightAware ADS-B (CYYZ)
Sat 05:20:32 PM 43.4670 -76.3690 158° South 463 533 27,000  Level FlightAware ADS-B
Sat 05:20:44 PM 43.4438 -76.3564 158° South 462 532 27,000  Level FlightAware ADS-B (CYYZ)
Sat 05:21:07 PM 43.3980 -76.3320 158° South 463 533 27,000  Level FlightAware ADS-B
Sat 05:21:28 PM 43.3640 -76.3134 158° South 462 532 27,000  Level FlightAware ADS-B (CYYZ)
Sat 05:21:37 PM 43.3360 -76.2980 158° South 462 532 27,000  Level FlightAware ADS-B
Sat 05:22:08 PM 43.2760 -76.2660 158° South 463 533 27,000  Level FlightAware ADS-B
Sat 05:22:37 PM 43.2170 -76.2350 158° South 461 531 27,000  Level FlightAware ADS-B
Sat 05:23:08 PM 43.1580 -76.2000 153° Southeast 465 535 27,000  Level FlightAware ADS-B
Sat 05:23:43 PM 43.0910 -76.1480 148° Southeast 470 541 27,000  Level FlightAware ADS-B
Sat 05:24:19 PM 43.0240 -76.0930 148° Southeast 472 543 27,000  Level FlightAware ADS-B
Sat 05:24:49 PM 42.9680 -76.0460 148° Southeast 471 542 27,000  Level FlightAware ADS-B
Sat 05:25:25 PM 42.9020 -75.9910 148° Southeast 469 540 27,000  Level FlightAware ADS-B
Sat 05:26:01 PM 42.8350 -75.9370 148° Southeast 469 540 27,000  Level FlightAware ADS-B
Sat 05:26:37 PM 42.7680 -75.8820 149° Southeast 468 539 27,000  Level FlightAware ADS-B
Sat 05:26:56 PM 42.7465 -75.8650 149° Southeast 467 537 27,000  Level FlightAware ADS-B (CYYZ)
Sat 05:27:07 PM 42.7130 -75.8380 149° Southeast 466 536 27,000  Level FlightAware ADS-B
Sat 05:27:43 PM 42.6480 -75.7850 148° Southeast 456 525 27,000  Level FlightAware ADS-B
Sat 05:28:13 PM 42.5930 -75.7400 149° Southeast 458 527 27,000  Level FlightAware ADS-B
Sat 05:28:50 PM 42.5260 -75.6870 149° Southeast 465 535 27,000 -182 Level FlightAware ADS-B
Sat 05:29:19 PM 42.4720 -75.6430 149° Southeast 466 536 26,800 -1,525 Descending FlightAware ADS-B
Sat 05:29:49 PM 42.4160 -75.5980 149° Southeast 465 535 25,500 -2,239 Descending FlightAware ADS-B
Sat 05:30:26 PM 42.3510 -75.5450 149° Southeast 447 514 24,300 -2,250 Descending FlightAware ADS-B
Sat 05:31:01 PM 42.2880 -75.4950 149° Southeast 438 504 22,800 -2,308 Descending FlightAware ADS-B
Sat 05:31:31 PM 42.2390 -75.4560 149° Southeast 432 497 21,800 -2,172 Descending FlightAware ADS-B
Sat 05:31:59 PM 42.1880 -75.4160 149° Southeast 427 491 20,700 -1,880 Descending FlightAware ADS-B
Sat 05:32:54 PM 42.1192 -75.3606 149° Southeast 426 490 19,200 -1,409 Descending Boston Center
Sat 05:33:54 PM 42.0386 -75.2517 135° Southeast 420 483 18,000 -595 Descending Boston Center
Sat 05:34:55 PM 41.9797 -75.0933 117° Southeast 420 483 18,000  Level Boston Center
Sat 05:35:58 PM 41.9228 -74.9428 117° Southeast 419 482 18,000 -629 Level Boston Center
Sat 05:36:59 PM 41.8692 -74.8022 117° Southeast 422 486 16,700 -1,574 Descending Boston Center
Sat 05:38:00 PM 41.8169 -74.6672 117° Southeast 414 476 14,800 -1,918 Descending Boston Center
Sat 05:39:01 PM 41.7628 -74.5258 117° Southeast 400 460 12,800 -1,869 Descending Boston Center
Sat 05:40:02 PM 41.7142 -74.4014 118° Southeast 383 441 11,000 -1,180 Descending Boston Center
Sat 05:41:03 PM 41.6542 -74.3061 130° Southeast 337 388 10,400 -768 Descending Boston Center
Sat 05:42:07 PM 41.5694 -74.3225 188° South 291 335 9,400 -1,143 Descending Boston Center
Sat 05:43:09 PM 41.4942 -74.3567 199° South 291 335 8,000 -1,171 Descending Boston Center
Sat 05:44:10 PM 41.4194 -74.3883 198° South 288 331 7,000 -492 Descending Boston Center
Sat 05:45:11 PM 41.3397 -74.4203 197° South 282 325 7,000  Level Boston Center
Sat 05:46:12 PM 41.2653 -74.4494 196° South 282 325 7,000  Level Boston Center
Sat 05:47:12 PM 41.1906 -74.4783 196° South 281 323 7,000  Level Boston Center
Sat 05:48:16 PM 41.1111 -74.5100 197° South 280 322 7,000 -432 Level Boston Center
Sat 05:49:17 PM 41.0369 -74.5397 197° South 280 322 6,100 -884 Descending Boston Center
Sat 05:50:25 PM 40.9500 -74.5500 185° South 282 325 5,100 -516 Descending New York TRACON
Sat 05:51:25 PM 40.8667 -74.5333 171° South 275 316 5,000 -50 Descending New York TRACON
Sat 05:52:25 PM 40.7833 -74.5333 180° South 276 318 5,000  Level New York TRACON
Sat 05:53:25 PM 40.7167 -74.5333 180° South 274 315 5,000 -250 Level New York TRACON
Sat 05:54:25 PM 40.6333 -74.5167 171° South 279 321 4,500 -500 Descending New York TRACON
Sat 05:55:25 PM 40.5667 -74.4833 159° South 272 313 4,000 -450 Descending New York TRACON
Sat 05:56:25 PM 40.5000 -74.4333 150° Southeast 271 312 3,600 -500 Descending New York TRACON
Sat 05:57:25 PM 40.4833 -74.3667 108° East 252 290 3,000 -316 Descending New York TRACON
Sat 05:58:19 PM 40.5000 -74.3000 72° East 196 226 3,000  Level New York TRACON
Sat 05:59:19 PM 40.5500 -74.2667 27° Northeast 190 219 3,000 -500 Level New York TRACON
Sat 06:00:19 PM 40.5833 -74.2333 37° Northeast 181 208 2,000 -950 Descending New York TRACON
Sat 06:01:19 PM 40.6333 -74.2000 27° Northeast 162 186 1,100 -800 Descending New York TRACON
Sat 06:02:19 PM 40.6667 -74.1833 21° North 137 158 400 -700 Descending New York TRACON

Login

Don't have an account? Register now (free) for customized features, flight alerts, and more!